createdAt,value
2023-05-22T00:01:08.924Z,18.52
2023-05-22T00:03:37.069Z,18.42
2023-05-22T00:06:04.360Z,21.35
2023-05-22T00:08:31.328Z,18.20
2023-05-22T00:10:58.080Z,19.63
2023-05-22T00:13:25.031Z,16.80
2023-05-22T00:15:51.752Z,17.65
2023-05-22T00:18:18.420Z,20.30
2023-05-22T00:20:46.627Z,18.95
2023-05-22T00:23:15.735Z,19.48
2023-05-22T00:25:42.530Z,19.67
2023-05-22T00:28:09.407Z,19.85
2023-05-22T00:30:37.329Z,20.33
2023-05-22T00:33:04.365Z,21.10
2023-05-22T00:35:31.540Z,19.65
2023-05-22T00:37:58.310Z,18.65
2023-05-22T00:40:24.980Z,20.48
2023-05-22T00:42:51.637Z,20.75
2023-05-22T00:45:18.262Z,20.75
2023-05-22T00:47:45.154Z,19.60
2023-05-22T00:50:12.813Z,20.17
2023-05-22T00:52:44.026Z,20.13
2023-05-22T00:55:12.723Z,18.80
2023-05-22T00:57:42.930Z,18.77
2023-05-22T01:00:13.607Z,19.88
2023-05-22T01:02:43.842Z,20.55
2023-05-22T01:05:19.314Z,20.60
2023-05-22T01:07:46.645Z,20.42
2023-05-22T01:10:13.375Z,20.75
2023-05-22T01:12:52.261Z,19.58
2023-05-22T01:15:29.562Z,21.67
2023-05-22T01:18:25.235Z,22.20
2023-05-22T01:21:06.121Z,20.92
2023-05-22T01:23:49.822Z,21.52
2023-05-22T01:26:31.086Z,20.88
2023-05-22T01:29:28.748Z,21.10
2023-05-22T01:31:58.192Z,22.25
2023-05-22T01:34:26.880Z,23.63
2023-05-22T01:36:55.694Z,23.45
2023-05-22T01:39:25.665Z,23.23
2023-05-22T01:41:52.860Z,22.23
2023-05-22T01:44:19.805Z,21.70
2023-05-22T01:46:46.840Z,23.73
2023-05-22T01:49:13.502Z,23.20
2023-05-22T01:51:53.529Z,22.27
2023-05-22T01:54:42.488Z,23.95
2023-05-22T01:57:19.284Z,24.48
2023-05-22T01:59:50.003Z,23.65
2023-05-22T02:02:19.661Z,22.35
2023-05-22T02:04:52.095Z,21.52
2023-05-22T02:07:22.433Z,22.77
2023-05-22T02:09:51.687Z,23.20
2023-05-22T02:12:21.681Z,21.92
2023-05-22T02:14:49.364Z,22.75
2023-05-22T02:17:18.529Z,21.65
2023-05-22T02:19:45.467Z,22.67
2023-05-22T02:22:15.441Z,22.67
2023-05-22T02:24:44.584Z,23.02
2023-05-22T02:27:13.012Z,22.17
2023-05-22T02:29:40.108Z,22.98
2023-05-22T02:32:07.058Z,23.88
2023-05-22T02:34:33.976Z,24.30
2023-05-22T02:37:03.985Z,22.00
2023-05-22T02:39:31.099Z,22.00
2023-05-22T02:41:57.839Z,22.67
2023-05-22T02:44:24.719Z,24.13
2023-05-22T02:46:52.850Z,23.25
2023-05-22T02:49:19.870Z,23.45
2023-05-22T02:51:48.068Z,22.42
2023-05-22T02:54:16.275Z,23.10
2023-05-22T02:56:43.752Z,22.92
2023-05-22T02:59:10.551Z,23.23
2023-05-22T03:01:39.048Z,23.40
2023-05-22T03:04:06.893Z,23.02
2023-05-22T03:06:35.740Z,23.65
2023-05-22T03:09:04.448Z,23.05
2023-05-22T03:11:32.041Z,23.48
2023-05-22T03:13:58.796Z,22.00
2023-05-22T03:16:26.053Z,22.67
2023-05-22T03:19:11.281Z,23.30
2023-05-22T03:21:39.274Z,22.15
2023-05-22T03:24:06.795Z,22.05
2023-05-22T03:26:34.006Z,23.92
2023-05-22T03:29:00.823Z,23.45
2023-05-22T03:31:29.312Z,22.67
2023-05-22T03:33:56.089Z,22.55
2023-05-22T03:36:24.541Z,23.65
2023-05-22T03:38:51.969Z,22.15
2023-05-22T03:41:18.784Z,23.55
2023-05-22T03:43:46.978Z,23.20
2023-05-22T03:46:14.082Z,23.67
2023-05-22T03:48:40.740Z,23.95
2023-05-22T03:51:07.405Z,22.85
2023-05-22T03:53:34.125Z,22.45
2023-05-22T03:56:00.817Z,23.83
2023-05-22T03:58:27.657Z,21.65
2023-05-22T04:00:55.685Z,22.92
2023-05-22T04:03:22.876Z,24.52
2023-05-22T04:05:49.727Z,24.58
2023-05-22T04:08:16.637Z,23.20
2023-05-22T04:10:46.784Z,23.80
2023-05-22T04:13:17.147Z,23.08
2023-05-22T04:15:46.989Z,24.45
2023-05-22T04:18:14.476Z,23.63
2023-05-22T04:20:41.955Z,24.15
2023-05-22T04:23:08.814Z,23.38
2023-05-22T04:25:36.642Z,23.45
2023-05-22T04:28:04.342Z,22.50
2023-05-22T04:30:34.610Z,22.70
2023-05-22T04:33:02.066Z,22.83
2023-05-22T04:35:29.770Z,22.25
2023-05-22T04:37:57.374Z,22.85
2023-05-22T04:40:24.240Z,23.40
2023-05-22T04:42:54.448Z,23.50
2023-05-22T04:45:25.564Z,25.60
2023-05-22T04:47:53.374Z,22.00
2023-05-22T04:50:20.825Z,23.52
2023-05-22T04:52:48.598Z,23.05
2023-05-22T04:55:15.807Z,24.23
2023-05-22T04:57:44.815Z,23.13
2023-05-22T05:00:17.315Z,23.10
2023-05-22T05:02:44.280Z,23.67
2023-05-22T05:05:12.065Z,22.55
2023-05-22T05:07:39.981Z,23.42
2023-05-22T05:10:07.707Z,22.63
2023-05-22T05:12:34.527Z,23.98
2023-05-22T05:15:01.491Z,22.80
2023-05-22T05:17:29.071Z,24.38
2023-05-22T05:19:55.993Z,23.33
2023-05-22T05:22:23.124Z,27.17
2023-05-22T05:24:49.926Z,23.92
2023-05-22T05:27:16.687Z,23.20
2023-05-22T05:29:43.315Z,25.73
2023-05-22T05:32:11.676Z,24.60
2023-05-22T05:34:38.459Z,24.25
2023-05-22T05:37:05.467Z,24.00
2023-05-22T05:39:32.169Z,23.80
2023-05-22T05:41:58.943Z,23.80
2023-05-22T05:44:25.717Z,22.80
2023-05-22T05:46:52.730Z,24.23
2023-05-22T05:49:19.978Z,25.02
2023-05-22T05:51:46.661Z,24.23
2023-05-22T05:54:13.714Z,23.38
2023-05-22T05:56:40.373Z,25.02
2023-05-22T05:59:07.433Z,23.52
2023-05-22T06:01:35.458Z,23.58
2023-05-22T06:04:03.592Z,23.58
2023-05-22T06:06:36.490Z,25.50
2023-05-22T06:09:05.709Z,24.55
2023-05-22T06:11:33.266Z,24.42
2023-05-22T06:14:01.154Z,25.13
2023-05-22T06:16:28.368Z,23.33
2023-05-22T06:18:57.278Z,23.48
2023-05-22T06:21:24.611Z,23.33
2023-05-22T06:23:51.779Z,22.10
2023-05-22T06:26:18.521Z,23.42
2023-05-22T06:28:45.281Z,24.35
2023-05-22T06:31:11.836Z,23.75
2023-05-22T06:33:40.851Z,24.30
2023-05-22T06:36:09.001Z,22.08
2023-05-22T06:38:38.101Z,23.02
2023-05-22T06:41:05.544Z,23.40
2023-05-22T06:43:32.489Z,23.23
2023-05-22T06:45:59.170Z,23.75
2023-05-22T06:48:25.782Z,23.40
2023-05-22T06:50:52.359Z,22.73
2023-05-22T06:53:18.996Z,23.40
2023-05-22T06:55:45.656Z,23.40
2023-05-22T06:58:12.279Z,26.02
2023-05-22T07:00:39.199Z,25.38
2023-05-22T07:03:07.025Z,24.42
2023-05-22T07:05:33.765Z,24.65
2023-05-22T07:08:00.415Z,25.77
2023-05-22T07:10:27.900Z,23.25
2023-05-22T07:12:54.815Z,23.48
2023-05-22T07:15:21.474Z,25.92
2023-05-22T07:17:49.507Z,25.35
2023-05-22T07:20:16.919Z,23.58
2023-05-22T07:22:43.491Z,27.00
2023-05-22T07:25:10.424Z,23.90
2023-05-22T07:27:37.015Z,22.73
2023-05-22T07:30:04.408Z,24.70
2023-05-22T07:32:35.313Z,24.33
2023-05-22T07:35:05.925Z,23.92
2023-05-22T07:37:33.599Z,23.40
2023-05-22T07:40:01.660Z,24.08
2023-05-22T07:42:29.532Z,24.30
2023-05-22T07:44:57.729Z,24.38
2023-05-22T07:47:24.579Z,24.63
2023-05-22T07:49:52.347Z,23.33
2023-05-22T07:52:19.432Z,21.80
2023-05-22T07:54:48.774Z,22.38
2023-05-22T07:57:16.819Z,25.30
2023-05-22T07:59:45.586Z,23.40
2023-05-22T08:02:14.486Z,24.55
2023-05-22T08:04:44.287Z,22.73
2023-05-22T08:07:12.915Z,24.35
2023-05-22T08:09:47.600Z,22.63
2023-05-22T08:12:15.753Z,22.30
2023-05-22T08:14:45.713Z,24.40
2023-05-22T08:17:12.646Z,23.13
2023-05-22T08:19:43.159Z,21.67
2023-05-22T08:22:10.958Z,24.10
2023-05-22T08:24:38.050Z,23.08
2023-05-22T08:27:07.466Z,24.15
2023-05-22T08:29:36.415Z,24.52
2023-05-22T08:32:04.523Z,24.48
2023-05-22T08:34:33.141Z,25.13
2023-05-22T08:37:00.971Z,23.80
2023-05-22T08:39:29.305Z,26.02
2023-05-22T08:41:56.532Z,25.88
2023-05-22T08:44:25.792Z,25.95
2023-05-22T08:46:52.766Z,24.88
2023-05-22T08:49:21.832Z,27.00
2023-05-22T08:51:56.296Z,25.98
2023-05-22T08:54:28.816Z,25.23
2023-05-22T08:56:57.322Z,27.17
2023-05-22T08:59:25.070Z,27.00
2023-05-22T09:01:54.010Z,26.65
2023-05-22T09:04:23.962Z,25.25
2023-05-22T09:06:52.280Z,27.35
2023-05-22T09:09:19.207Z,28.85
2023-05-22T09:11:46.285Z,30.92
2023-05-22T09:14:16.099Z,29.45
2023-05-22T09:16:53.024Z,29.30
2023-05-22T09:19:21.516Z,29.42
2023-05-22T09:21:48.322Z,30.05
2023-05-22T09:24:15.189Z,27.35
2023-05-22T09:26:42.230Z,27.45
2023-05-22T09:29:12.561Z,27.20
2023-05-22T09:31:43.831Z,26.80
2023-05-22T09:34:14.423Z,25.40
2023-05-22T09:36:42.832Z,26.65
2023-05-22T09:39:09.781Z,27.90
2023-05-22T09:41:40.468Z,26.35
2023-05-22T09:44:14.125Z,26.65
2023-05-22T09:46:50.082Z,26.02
2023-05-22T09:49:17.577Z,24.75
2023-05-22T09:51:49.609Z,23.30
2023-05-22T09:54:20.446Z,22.27
2023-05-22T09:56:59.068Z,23.23
2023-05-22T09:59:30.533Z,22.05
2023-05-22T10:01:58.608Z,23.33
2023-05-22T10:04:33.270Z,24.02
2023-05-22T10:07:04.386Z,21.85
2023-05-22T10:09:40.988Z,26.70
2023-05-22T10:12:15.852Z,22.65
2023-05-22T10:14:44.158Z,22.92
2023-05-22T10:17:16.838Z,21.75
2023-05-22T10:22:27.457Z,22.45
2023-05-22T10:25:05.150Z,20.30
2023-05-22T10:27:33.430Z,23.98
2023-05-22T10:30:29.334Z,20.13
2023-05-22T10:33:20.347Z,20.17
2023-05-22T10:36:04.819Z,19.10
2023-05-22T10:39:12.261Z,21.17
2023-05-22T10:41:40.620Z,19.17
2023-05-22T10:44:14.483Z,19.58
2023-05-22T10:47:14.104Z,20.67
2023-05-22T10:49:47.436Z,19.98
2023-05-22T10:52:42.954Z,19.85
2023-05-22T10:55:18.316Z,20.48
2023-05-22T10:57:52.542Z,19.88
2023-05-22T11:00:27.827Z,20.23
2023-05-22T11:03:17.079Z,23.60
2023-05-22T11:05:53.477Z,21.63
2023-05-22T11:08:27.555Z,23.15
2023-05-22T11:11:01.388Z,22.83
2023-05-22T11:13:29.471Z,22.73
2023-05-22T11:15:58.437Z,23.70
2023-05-22T11:18:31.698Z,23.35
2023-05-22T11:21:00.071Z,23.13
2023-05-22T11:23:30.878Z,22.98
2023-05-22T11:26:23.254Z,22.88
2023-05-22T11:28:53.865Z,21.00
2023-05-22T11:31:24.374Z,21.35
2023-05-22T11:33:58.703Z,22.92
2023-05-22T11:36:27.886Z,21.77
2023-05-22T11:39:01.556Z,23.48
2023-05-22T11:41:34.065Z,23.85
2023-05-22T11:44:02.549Z,23.38
2023-05-22T11:46:30.813Z,22.15
2023-05-22T11:48:59.181Z,23.02
2023-05-22T11:51:29.228Z,21.48
2023-05-22T11:53:57.379Z,21.85
2023-05-22T11:56:27.164Z,21.02
2023-05-22T11:58:53.875Z,22.90
2023-05-22T12:01:22.087Z,22.98
2023-05-22T12:03:55.635Z,23.08
2023-05-22T12:06:22.609Z,23.25
2023-05-22T12:08:51.161Z,21.70
2023-05-22T12:11:18.101Z,22.13
2023-05-22T12:13:45.651Z,23.83
2023-05-22T12:16:20.249Z,25.45
2023-05-22T12:18:49.186Z,25.38
2023-05-22T12:21:20.302Z,23.27
2023-05-22T12:23:51.227Z,23.80
2023-05-22T12:26:19.570Z,21.90
2023-05-22T12:28:52.223Z,25.67
2023-05-22T12:33:56.064Z,23.60
2023-05-22T12:39:18.701Z,20.05
2023-05-22T12:41:53.342Z,21.33
2023-05-22T12:44:26.554Z,22.90
2023-05-22T12:46:56.310Z,24.08
2023-05-22T12:49:23.970Z,25.02
2023-05-22T12:51:52.158Z,24.60
2023-05-22T12:54:20.401Z,23.35
2023-05-22T12:56:47.285Z,22.98
2023-05-22T12:59:14.002Z,22.05
2023-05-22T13:01:40.836Z,23.42
2023-05-22T13:04:11.321Z,23.85
2023-05-22T13:06:39.551Z,22.25
2023-05-22T13:09:07.488Z,23.33
2023-05-22T13:11:36.939Z,24.10
2023-05-22T13:14:03.764Z,22.13
2023-05-22T13:16:31.614Z,22.17
2023-05-22T13:18:58.294Z,23.98
2023-05-22T13:21:26.635Z,23.73
2023-05-22T13:23:53.750Z,22.70
2023-05-22T13:26:21.359Z,20.83
2023-05-22T13:28:48.044Z,20.98
2023-05-22T13:31:14.762Z,19.88
2023-05-22T13:33:42.757Z,22.48
2023-05-22T13:36:09.562Z,19.75
2023-05-22T13:38:36.537Z,20.35
2023-05-22T13:41:03.339Z,22.15
2023-05-22T13:43:30.004Z,21.02
2023-05-22T13:45:56.923Z,19.63
2023-05-22T13:48:23.737Z,24.55
2023-05-22T13:50:53.479Z,22.67
2023-05-22T13:53:20.074Z,20.70
2023-05-22T13:55:46.784Z,21.75
2023-05-22T13:58:13.553Z,22.25
2023-05-22T14:00:40.134Z,20.85
2023-05-22T14:03:06.924Z,22.15
2023-05-22T14:05:34.779Z,20.42
2023-05-22T14:08:01.425Z,20.45
2023-05-22T14:10:29.397Z,20.40
2023-05-22T14:12:58.048Z,22.25
2023-05-22T14:15:24.762Z,21.25
2023-05-22T14:17:53.851Z,21.75
2023-05-22T14:23:05.345Z,21.45
2023-05-22T14:25:39.825Z,21.95
2023-05-22T14:28:06.715Z,22.63
2023-05-22T14:30:34.692Z,23.00
2023-05-22T14:33:01.779Z,23.02
2023-05-22T14:35:29.840Z,20.65
2023-05-22T14:37:56.516Z,21.85
2023-05-22T14:40:23.322Z,21.20
2023-05-22T14:42:51.318Z,23.08
2023-05-22T14:45:20.364Z,23.98
2023-05-22T14:47:50.028Z,22.02
2023-05-22T14:50:20.361Z,22.75
2023-05-22T14:52:49.052Z,22.77
2023-05-22T14:55:16.753Z,21.67
2023-05-22T14:57:45.084Z,21.33
2023-05-22T15:00:12.651Z,22.38
2023-05-22T15:02:39.735Z,23.60
2023-05-22T15:05:07.394Z,23.42
2023-05-22T15:10:05.424Z,23.38
2023-05-22T15:12:32.681Z,22.55
2023-05-22T15:14:59.335Z,25.20
2023-05-22T15:17:26.161Z,23.65
2023-05-22T15:19:52.860Z,24.10
2023-05-22T15:22:20.224Z,25.88
2023-05-22T15:24:48.347Z,26.10
2023-05-22T15:27:15.166Z,26.58
2023-05-22T15:29:43.348Z,25.08
2023-05-22T15:32:10.193Z,26.33
2023-05-22T15:34:37.009Z,24.90
2023-05-22T15:37:03.669Z,23.88
2023-05-22T15:39:30.610Z,26.40
2023-05-22T15:42:06.477Z,24.92
2023-05-22T15:44:33.890Z,24.88
2023-05-22T15:47:03.274Z,26.92
2023-05-22T15:49:31.233Z,27.58
2023-05-22T15:52:01.045Z,25.70
2023-05-22T15:54:27.723Z,27.48
2023-05-22T15:56:54.412Z,27.50
2023-05-22T15:59:22.160Z,30.55
2023-05-22T16:01:48.916Z,27.50
2023-05-22T16:04:17.081Z,28.55
2023-05-22T16:06:43.960Z,28.95
2023-05-22T16:09:13.593Z,28.02
2023-05-22T16:11:44.096Z,29.80
2023-05-22T16:14:12.348Z,29.38
2023-05-22T16:16:44.164Z,30.17
2023-05-22T16:19:17.725Z,30.17
2023-05-22T16:21:49.854Z,30.55
2023-05-22T16:24:19.586Z,31.05
2023-05-22T16:26:53.861Z,29.17
2023-05-22T16:29:22.270Z,29.70
2023-05-22T16:31:53.481Z,30.15
2023-05-22T16:34:21.676Z,31.75
2023-05-22T16:36:51.388Z,30.92
2023-05-22T16:39:20.792Z,30.67
2023-05-22T16:41:48.781Z,29.33
2023-05-22T16:44:18.530Z,30.77
2023-05-22T16:46:53.565Z,32.40
2023-05-22T16:49:21.061Z,31.10
2023-05-22T16:51:47.728Z,31.73
2023-05-22T16:54:14.303Z,31.08
2023-05-22T16:56:40.944Z,30.33
2023-05-22T16:59:07.658Z,30.40
2023-05-22T17:01:34.334Z,31.67
2023-05-22T17:04:00.986Z,30.17
2023-05-22T17:06:27.970Z,32.63
2023-05-22T17:08:54.568Z,32.92
2023-05-22T17:11:21.176Z,31.20
2023-05-22T17:13:47.900Z,32.83
2023-05-22T17:16:14.614Z,33.03
2023-05-22T17:18:41.407Z,33.88
2023-05-22T17:21:09.375Z,30.58
2023-05-22T17:23:37.418Z,33.00
2023-05-22T17:26:04.673Z,32.53
2023-05-22T17:28:31.676Z,29.98
2023-05-22T17:30:58.332Z,32.50
2023-05-22T17:33:25.469Z,29.88
2023-05-22T17:35:52.820Z,31.02
2023-05-22T17:38:19.489Z,31.55
2023-05-22T17:40:46.513Z,31.77
2023-05-22T17:43:13.846Z,32.60
2023-05-22T17:45:40.795Z,32.72
2023-05-22T17:48:08.003Z,33.88
2023-05-22T17:50:34.852Z,34.22
2023-05-22T17:53:01.577Z,33.60
2023-05-22T17:55:28.329Z,34.05
2023-05-22T17:57:55.068Z,33.45
2023-05-22T18:00:21.817Z,33.50
2023-05-22T18:02:50.782Z,31.25
2023-05-22T18:05:17.576Z,32.15
2023-05-22T18:07:44.163Z,30.70
2023-05-22T18:10:11.242Z,32.72
2023-05-22T18:15:09.685Z,33.00
2023-05-22T18:17:36.440Z,31.50
2023-05-22T18:20:07.688Z,30.45
2023-05-22T18:22:35.923Z,31.25
2023-05-22T18:25:03.185Z,31.25
2023-05-22T18:27:29.941Z,30.10
2023-05-22T18:29:56.745Z,30.35
2023-05-22T18:32:23.455Z,30.15
2023-05-22T18:34:54.863Z,30.38
2023-05-22T18:37:21.975Z,28.55
2023-05-22T18:39:51.255Z,29.27
2023-05-22T18:45:01.690Z,28.40
2023-05-22T18:47:28.403Z,29.33
2023-05-22T18:49:57.217Z,27.10
2023-05-22T18:52:26.432Z,28.98
2023-05-22T18:54:52.987Z,29.58
2023-05-22T18:57:22.553Z,28.77
2023-05-22T18:59:49.662Z,27.55
2023-05-22T19:02:17.106Z,30.27
2023-05-22T19:04:47.155Z,29.45
2023-05-22T19:07:14.016Z,28.10
2023-05-22T19:09:40.712Z,28.73
2023-05-22T19:12:07.422Z,27.52
2023-05-22T19:14:34.032Z,29.50
2023-05-22T19:17:00.716Z,29.60
2023-05-22T19:19:27.782Z,27.67
2023-05-22T19:21:57.323Z,28.77
2023-05-22T19:24:23.924Z,28.38
2023-05-22T19:26:50.621Z,28.23
2023-05-22T19:29:20.176Z,27.85
2023-05-22T19:31:46.869Z,27.92
2023-05-22T19:34:13.444Z,27.15
2023-05-22T19:36:40.001Z,27.00
2023-05-22T19:39:06.808Z,26.27
2023-05-22T19:41:33.408Z,26.92
2023-05-22T19:44:20.273Z,26.83
2023-05-22T19:46:46.984Z,25.92
2023-05-22T19:49:13.801Z,24.15
2023-05-22T19:51:46.007Z,24.27
2023-05-22T19:54:16.899Z,26.20
2023-05-22T19:56:43.453Z,26.15
2023-05-22T19:59:09.994Z,22.90
2023-05-22T20:01:36.590Z,22.52
2023-05-22T20:04:03.399Z,22.73
2023-05-22T20:06:33.557Z,21.92
2023-05-22T20:09:01.824Z,21.90
2023-05-22T20:11:29.588Z,20.85
2023-05-22T20:13:56.398Z,20.42
2023-05-22T20:16:28.421Z,19.35
2023-05-22T20:21:23.042Z,19.80
2023-05-22T20:23:49.635Z,19.70
2023-05-22T20:26:16.268Z,20.80
2023-05-22T20:28:45.747Z,19.00
2023-05-22T20:31:12.319Z,19.95
2023-05-22T20:33:38.876Z,21.20
2023-05-22T20:36:08.764Z,21.33
2023-05-22T20:38:35.325Z,24.02
2023-05-22T20:41:02.722Z,22.95
2023-05-22T20:43:30.880Z,23.67
2023-05-22T20:45:57.642Z,23.23
2023-05-22T20:48:24.296Z,21.83
2023-05-22T20:50:51.058Z,21.60
2023-05-22T20:53:18.345Z,18.10
2023-05-22T20:55:44.995Z,18.63
2023-05-22T20:58:14.318Z,16.38
2023-05-22T21:00:42.217Z,15.60
2023-05-22T21:03:08.990Z,15.00
2023-05-22T21:05:35.884Z,14.57
2023-05-22T21:08:02.491Z,15.35
2023-05-22T21:10:29.096Z,16.20
2023-05-22T21:12:59.011Z,17.13
2023-05-22T21:15:25.653Z,16.02
2023-05-22T21:17:52.337Z,17.50
2023-05-22T21:20:19.013Z,19.00
2023-05-22T21:22:48.180Z,18.67
2023-05-22T21:25:14.828Z,22.10
2023-05-22T21:27:41.471Z,18.23
2023-05-22T21:30:08.682Z,18.38
2023-05-22T21:32:35.337Z,17.20
2023-05-22T21:35:01.989Z,16.15
2023-05-22T21:37:28.652Z,15.63
2023-05-22T21:39:55.218Z,16.25
2023-05-22T21:42:22.310Z,15.23
2023-05-22T21:44:48.932Z,15.57
2023-05-22T21:47:15.571Z,13.88
2023-05-22T21:49:42.235Z,13.93
2023-05-22T21:52:08.971Z,12.65
2023-05-22T21:54:35.676Z,11.48
2023-05-22T21:57:03.526Z,11.13
2023-05-22T21:59:30.269Z,10.13
2023-05-22T22:01:57.054Z,9.07
2023-05-22T22:04:23.773Z,10.02
2023-05-22T22:06:50.512Z,9.07
2023-05-22T22:09:17.233Z,8.93
2023-05-22T22:11:43.793Z,9.05
2023-05-22T22:14:10.420Z,10.00
2023-05-22T22:16:37.876Z,9.00
2023-05-22T22:19:05.120Z,8.60
2023-05-22T22:21:33.583Z,8.30
2023-05-22T22:27:28.783Z,8.70
2023-05-22T22:29:55.527Z,8.77
2023-05-22T22:32:22.165Z,8.27
2023-05-22T22:34:53.982Z,7.20
2023-05-22T22:37:21.799Z,8.02
2023-05-22T22:39:48.467Z,8.20
2023-05-22T22:42:15.080Z,7.72
2023-05-22T22:44:41.798Z,7.55
2023-05-22T22:47:11.271Z,8.63
2023-05-22T22:49:39.351Z,8.85
2023-05-22T22:52:06.020Z,8.07
2023-05-22T22:54:32.840Z,8.85
2023-05-22T22:56:59.444Z,8.70
2023-05-22T22:59:26.126Z,8.98
2023-05-22T23:01:52.817Z,8.23
2023-05-22T23:04:19.786Z,9.38
2023-05-22T23:06:47.843Z,8.77
2023-05-22T23:09:14.841Z,8.90
2023-05-22T23:11:42.741Z,9.43
2023-05-22T23:14:10.041Z,8.88
2023-05-22T23:16:38.127Z,9.45
2023-05-22T23:19:05.440Z,9.40
2023-05-22T23:21:33.672Z,9.20
2023-05-22T23:24:01.586Z,9.05
2023-05-22T23:26:28.573Z,8.23
2023-05-22T23:28:55.160Z,9.10
2023-05-22T23:31:26.316Z,8.63
2023-05-22T23:33:53.175Z,8.60
2023-05-22T23:36:19.820Z,8.75
2023-05-22T23:38:47.108Z,8.27
2023-05-22T23:41:18.841Z,7.82
2023-05-22T23:43:46.500Z,7.50
2023-05-22T23:46:15.968Z,8.05
2023-05-22T23:48:42.814Z,7.15
2023-05-22T23:51:10.117Z,7.75
2023-05-22T23:53:37.035Z,7.63
2023-05-22T23:56:04.481Z,6.97
2023-05-22T23:58:32.302Z,7.03
